Time;durP1;ratioP1;P1;durP2;ratioP2;P2;SDS_P1;SDS_P2;PMS_P1;PMS_P2;Temp;Humidity;BMP_temperature;BMP_pressure;BME280_temperature;BME280_humidity;BME280_pressure;Samples;Min_cycle;Max_cycle;Signal;HPM_P1;HPM_P2
2022/11/15 00:02:08;;;;;;;1.63;1.03;;;12.10;99.90;;;;;;5011013;28;20620;-70
2022/11/15 00:04:33;;;;;;;1.20;0.90;;;12.10;99.90;;;;;;5009518;28;20238;-71
2022/11/15 00:06:59;;;;;;;5.63;1.10;;;12.20;99.90;;;;;;5011379;28;20217;-70
2022/11/15 00:09:24;;;;;;;2.27;1.00;;;12.20;99.90;;;;;;5010694;28;20247;-70
2022/11/15 00:11:51;;;;;;;1.07;0.83;;;12.20;99.90;;;;;;5010526;28;20194;-70
2022/11/15 00:14:17;;;;;;;1.60;0.90;;;12.20;99.90;;;;;;5010257;28;20595;-71
2022/11/15 00:16:43;;;;;;;2.20;1.23;;;12.40;99.90;;;;;;5010277;28;20480;-70
2022/11/15 00:19:09;;;;;;;3.33;1.00;;;12.30;99.90;;;;;;5008772;28;20490;-70
2022/11/15 00:21:35;;;;;;;3.17;1.00;;;12.30;99.90;;;;;;5008930;28;20962;-71
2022/11/15 00:24:00;;;;;;;2.40;1.00;;;12.20;99.90;;;;;;5008487;28;20220;-71
2022/11/15 00:26:26;;;;;;;2.90;1.10;;;12.30;99.90;;;;;;5008660;28;20211;-71
2022/11/15 00:28:53;;;;;;;3.67;1.10;;;12.30;99.90;;;;;;5008741;28;20613;-70
2022/11/15 00:31:18;;;;;;;1.37;1.00;;;12.20;99.90;;;;;;5010375;28;20187;-71
2022/11/15 00:33:44;;;;;;;1.77;0.90;;;12.20;99.90;;;;;;5009050;28;20552;-70
2022/11/15 00:36:10;;;;;;;7.73;1.40;;;12.20;99.90;;;;;;5010585;28;20192;-70
2022/11/15 00:38:38;;;;;;;1.70;0.80;;;12.10;99.90;;;;;;5008782;28;20446;-71
2022/11/15 00:41:05;;;;;;;5.47;0.93;;;12.00;99.90;;;;;;5008969;28;20196;-70
2022/11/15 00:43:31;;;;;;;2.03;1.03;;;11.90;99.90;;;;;;5010489;28;20981;-71
2022/11/15 00:45:57;;;;;;;2.27;0.83;;;11.80;99.90;;;;;;5010265;28;20538;-71
2022/11/15 00:48:23;;;;;;;3.17;1.13;;;11.80;99.90;;;;;;5008870;28;20511;-70
2022/11/15 00:50:49;;;;;;;4.10;1.07;;;11.70;99.90;;;;;;5010441;28;20539;-71
2022/11/15 00:53:16;;;;;;;3.50;1.40;;;11.60;99.90;;;;;;5008997;28;20186;-71
2022/11/15 00:55:42;;;;;;;2.80;1.20;;;11.70;99.90;;;;;;5009066;28;20482;-70
2022/11/15 00:58:07;;;;;;;1.43;0.90;;;11.70;99.90;;;;;;5009149;28;20466;-71
2022/11/15 01:00:33;;;;;;;2.20;1.00;;;11.50;99.90;;;;;;5010368;28;20613;-71
2022/11/15 01:03:01;;;;;;;2.80;1.60;;;11.50;99.90;;;;;;5010537;28;20644;-70
2022/11/15 01:05:26;;;;;;;2.33;1.10;;;11.40;99.90;;;;;;5010361;28;20226;-71
2022/11/15 01:07:56;;;;;;;4.87;1.43;;;11.40;99.90;;;;;;5020430;28;20426;-75
2022/11/15 01:10:23;;;;;;;1.87;1.03;;;11.40;99.90;;;;;;5051381;22;20641;-77
2022/11/15 01:12:49;;;;;;;5.43;1.20;;;11.40;99.90;;;;;;5048519;28;20416;-78
2022/11/15 01:15:14;;;;;;;1.13;1.03;;;11.40;99.90;;;;;;5049330;28;20452;-77
2022/11/15 01:17:40;;;;;;;1.07;0.97;;;11.40;99.90;;;;;;5048426;28;20614;-79
2022/11/15 01:20:06;;;;;;;1.53;1.40;;;11.40;99.90;;;;;;5031667;28;20227;-77
2022/11/15 01:22:32;;;;;;;1.80;1.60;;;11.40;99.90;;;;;;5047640;28;20289;-77
2022/11/15 01:24:58;;;;;;;3.20;1.33;;;11.40;99.90;;;;;;5049255;28;20434;-77
2022/11/15 01:27:24;;;;;;;2.33;1.20;;;11.40;99.90;;;;;;5031060;28;20194;-79
2022/11/15 01:29:49;;;;;;;1.60;1.10;;;11.40;99.90;;;;;;5047527;28;20483;-78
2022/11/15 01:32:15;;;;;;;6.73;1.23;;;11.40;99.90;;;;;;5047305;28;20191;-77
2022/11/15 01:34:41;;;;;;;2.63;1.00;;;11.40;99.90;;;;;;5049034;28;20252;-79
2022/11/15 01:37:07;;;;;;;2.63;1.00;;;11.30;99.90;;;;;;5047431;28;20792;-77
2022/11/15 01:39:33;;;;;;;1.47;0.90;;;11.30;99.90;;;;;;5048838;28;20707;-80
2022/11/15 01:41:59;;;;;;;4.80;1.17;;;11.30;99.90;;;;;;5047202;28;20268;-79
2022/11/15 01:44:36;;;;;;;5.83;1.23;;;11.40;99.90;;;;;;5047165;28;20875;-78
2022/11/15 01:47:08;;;;;;;3.40;1.50;;;11.40;99.90;;;;;;5047437;28;20197;-78
2022/11/15 01:49:37;;;;;;;2.00;0.90;;;11.40;99.90;;;;;;5047544;28;20440;-78
2022/11/15 01:52:06;;;;;;;2.60;1.07;;;11.30;99.90;;;;;;5030997;28;20438;-78
2022/11/15 01:54:33;;;;;;;1.40;1.13;;;11.30;99.90;;;;;;5048954;28;20762;-78
2022/11/15 01:57:06;;;;;;;2.57;1.23;;;11.30;99.90;;;;;;5047560;28;20957;-79
2022/11/15 01:59:32;;;;;;;1.13;0.90;;;11.30;99.90;;;;;;5047498;28;20484;-77
2022/11/15 02:01:58;;;;;;;7.37;1.40;;;11.20;99.90;;;;;;5031184;28;20449;-78
2022/11/15 02:04:33;;;;;;;7.20;1.03;;;11.20;99.90;;;;;;5047275;28;20548;-78
2022/11/15 02:07:01;;;;;;;1.63;1.00;;;11.20;99.90;;;;;;5031539;28;20209;-79
2022/11/15 02:09:27;;;;;;;1.00;0.90;;;11.20;99.90;;;;;;5030953;28;20512;-78
2022/11/15 02:11:54;;;;;;;5.00;1.20;;;11.20;99.90;;;;;;5030932;28;20851;-78
2022/11/15 02:14:21;;;;;;;2.53;1.03;;;11.20;99.90;;;;;;5047521;28;20240;-78
2022/11/15 02:17:11;;;;;;;2.50;0.80;;;11.20;99.90;;;;;;5047499;28;20424;-78
2022/11/15 02:19:53;;;;;;;1.73;1.30;;;11.20;99.90;;;;;;5047556;28;20549;-78
2022/11/15 02:22:22;;;;;;;2.03;1.00;;;11.20;99.90;;;;;;5047598;28;20491;-78
2022/11/15 02:25:15;;;;;;;2.40;1.40;;;11.20;99.90;;;;;;5047094;28;20441;-78
2022/11/15 02:28:09;;;;;;;1.20;0.97;;;11.10;99.90;;;;;;5047146;28;20433;-77
2022/11/15 02:30:57;;;;;;;1.37;1.07;;;11.10;99.90;;;;;;5046848;28;20438;-79
2022/11/15 02:33:22;;;;;;;3.90;1.50;;;11.10;99.90;;;;;;5048675;28;20446;-78
2022/11/15 02:36:07;;;;;;;3.23;1.00;;;11.10;99.90;;;;;;5048349;28;21000;-78
2022/11/15 02:38:58;;;;;;;1.13;0.87;;;11.10;99.90;;;;;;5031231;28;20218;-78
2022/11/15 02:41:35;;;;;;;1.87;0.90;;;11.20;99.90;;;;;;5048316;28;20727;-79
2022/11/15 02:44:17;;;;;;;2.60;1.00;;;11.30;99.90;;;;;;5046650;28;21818;-78
2022/11/15 02:49:37;;;;;;;1.53;0.97;;;11.40;99.90;;;;;;5048226;28;20420;-78
2022/11/15 02:52:03;;;;;;;4.93;1.47;;;11.40;99.90;;;;;;5046298;28;20471;-78
2022/11/15 02:54:31;;;;;;;2.23;1.03;;;11.40;99.90;;;;;;5029755;28;20484;-79
2022/11/15 02:57:04;;;;;;;1.63;1.00;;;11.40;99.90;;;;;;5030047;28;20498;-80
2022/11/15 02:59:47;;;;;;;2.47;1.10;;;11.40;99.90;;;;;;5049724;28;20497;-79
2022/11/15 03:02:24;;;;;;;2.93;0.80;;;11.30;99.90;;;;;;5051495;28;20459;-78
2022/11/15 03:05:14;;;;;;;2.30;1.30;;;11.30;99.90;;;;;;5051364;28;20528;-78
2022/11/15 03:07:50;;;;;;;7.60;1.63;;;11.30;99.90;;;;;;5046973;28;20423;-79
2022/11/15 03:10:29;;;;;;;2.37;0.73;;;11.30;99.90;;;;;;5051418;28;20947;-79
2022/11/15 03:13:23;;;;;;;1.80;1.07;;;11.40;99.90;;;;;;5051281;28;20421;-78
2022/11/15 03:16:03;;;;;;;0.97;0.80;;;11.40;99.90;;;;;;5050740;28;21010;-78
2022/11/15 03:19:04;;;;;;;1.93;1.00;;;11.40;99.90;;;;;;5049725;28;20577;-79
2022/11/15 03:21:32;;;;;;;1.97;1.10;;;11.60;99.90;;;;;;5048449;28;21023;-78
2022/11/15 03:24:02;;;;;;;2.30;1.00;;;11.50;99.90;;;;;;5033260;28;20977;-78
2022/11/15 03:26:29;;;;;;;3.43;0.97;;;11.50;99.90;;;;;;5049737;28;20435;-78
2022/11/15 03:28:59;;;;;;;1.33;0.90;;;11.40;99.90;;;;;;5033031;28;20436;-77
2022/11/15 03:31:47;;;;;;;1.93;0.80;;;11.40;99.90;;;;;;5033146;28;20447;-78
2022/11/15 03:34:54;;;;;;;9.57;1.13;;;11.30;99.90;;;;;;5035517;28;20459;-77
2022/11/15 03:37:25;;;;;;;1.97;0.90;;;11.20;99.90;;;;;;5050378;28;20883;-78
2022/11/15 03:39:50;;;;;;;2.80;1.00;;;11.20;99.90;;;;;;5050927;28;20913;-78
2022/11/15 03:42:38;;;;;;;1.63;0.93;;;11.20;99.90;;;;;;5032843;28;20435;-78
2022/11/15 03:45:19;;;;;;;1.03;0.70;;;11.20;99.90;;;;;;5033316;28;20724;-79
2022/11/15 03:48:18;;;;;;;2.43;0.80;;;11.30;99.90;;;;;;5049715;28;20519;-78
2022/11/15 03:50:45;;;;;;;1.13;0.83;;;11.40;99.90;;;;;;5049500;28;20456;-78
2022/11/15 03:53:11;;;;;;;29.57;2.50;;;11.40;99.90;;;;;;5033334;28;20509;-78
2022/11/15 03:55:37;;;;;;;1.10;0.90;;;11.40;99.90;;;;;;5049992;28;20455;-79
2022/11/15 03:58:03;;;;;;;4.80;1.30;;;11.40;99.90;;;;;;5050029;28;21488;-78
2022/11/15 04:00:29;;;;;;;2.27;1.17;;;11.40;99.90;;;;;;5050200;28;20224;-79
2022/11/15 04:02:55;;;;;;;512.00;284.40;;;11.40;99.90;;;;;;5033464;28;20437;-77
2022/11/15 04:05:20;;;;;;;444.50;206.97;;;11.40;99.90;;;;;;5032451;28;20210;-78
2022/11/15 04:07:46;;;;;;;20.10;11.37;;;11.40;99.90;;;;;;5032090;28;20218;-77
2022/11/15 04:10:13;;;;;;;2.80;2.40;;;11.30;99.90;;;;;;5031890;28;20692;-78
2022/11/15 04:12:42;;;;;;;4.10;1.57;;;11.30;99.90;;;;;;5048742;28;20204;-78
2022/11/15 04:15:10;;;;;;;1.53;1.20;;;11.40;99.90;;;;;;5050119;28;20530;-78
2022/11/15 04:17:44;;;;;;;1.53;1.10;;;11.40;99.90;;;;;;5050159;28;20427;-77
2022/11/15 04:25:53;;;;;;;3.70;1.17;;;11.20;99.90;;;;;;5049631;28;20987;-78
2022/11/15 04:28:19;;;;;;;3.27;1.20;;;11.10;99.90;;;;;;5049437;28;20429;-78
2022/11/15 04:30:45;;;;;;;1.37;0.93;;;11.10;99.90;;;;;;5049034;28;20521;-78
2022/11/15 04:33:11;;;;;;;1.17;1.07;;;11.10;99.90;;;;;;5050205;28;20214;-78
2022/11/15 04:35:37;;;;;;;4.27;1.17;;;11.00;99.90;;;;;;5048867;28;20501;-79
2022/11/15 04:38:04;;;;;;;1.50;1.10;;;11.00;99.90;;;;;;5048547;28;20569;-77
2022/11/15 04:40:30;;;;;;;1.20;1.10;;;11.00;99.90;;;;;;5048638;28;20221;-78
2022/11/15 04:42:56;;;;;;;1.50;1.40;;;10.90;99.90;;;;;;5048254;28;20429;-78
2022/11/15 04:45:22;;;;;;;3.07;1.07;;;10.80;99.90;;;;;;5031877;28;20698;-78
2022/11/15 04:47:48;;;;;;;9.07;1.50;;;10.60;99.90;;;;;;5048233;28;20866;-78
2022/11/15 04:50:15;;;;;;;5.73;1.00;;;10.30;99.90;;;;;;5047654;28;20197;-77
2022/11/15 04:52:43;;;;;;;5.70;1.20;;;10.10;99.90;;;;;;5048063;28;20428;-78
2022/11/15 04:55:11;;;;;;;2.90;1.33;;;9.90;99.90;;;;;;5047691;28;20475;-77
2022/11/15 04:57:38;;;;;;;4.47;1.27;;;9.70;99.90;;;;;;5047670;28;20465;-78
2022/11/15 05:00:10;;;;;;;3.97;1.60;;;9.60;99.90;;;;;;5050064;28;20457;-78
2022/11/15 05:05:21;;;;;;;1.90;1.37;;;9.60;99.90;;;;;;5046770;28;21052;-78
2022/11/15 05:07:46;;;;;;;6.47;5.00;;;9.60;99.90;;;;;;5029697;28;20430;-77
2022/11/15 05:10:12;;;;;;;864.67;422.77;;;9.50;99.90;;;;;;5029372;28;20945;-77
2022/11/15 05:12:38;;;;;;;205.80;65.40;;;9.20;99.90;;;;;;5029618;28;20199;-78
2022/11/15 05:15:04;;;;;;;308.67;102.37;;;9.00;99.90;;;;;;5046357;28;20288;-77
2022/11/15 05:17:29;;;;;;;11.80;7.37;;;8.80;99.90;;;;;;5045980;28;20707;-77
2022/11/15 05:19:55;;;;;;;10.93;6.00;;;8.50;99.90;;;;;;5013259;28;20479;-77
2022/11/15 05:22:21;;;;;;;40.57;16.50;;;8.30;99.90;;;;;;5046429;28;20196;-78
2022/11/15 05:24:47;;;;;;;439.67;168.93;;;8.20;99.90;;;;;;5047903;28;20434;-78
2022/11/15 05:27:12;;;;;;;417.37;154.43;;;8.10;99.90;;;;;;5030176;28;20220;-78
2022/11/15 05:29:38;;;;;;;94.80;39.43;;;8.00;99.90;;;;;;5047024;28;20248;-78
2022/11/15 05:32:06;;;;;;;68.20;30.33;;;7.90;99.90;;;;;;5030192;28;20278;-77
2022/11/15 05:34:32;;;;;;;36.30;15.50;;;8.00;99.90;;;;;;5047147;28;20218;-78
2022/11/15 05:36:59;;;;;;;222.80;79.47;;;8.00;99.90;;;;;;5046843;28;20431;-77
2022/11/15 05:39:25;;;;;;;114.07;44.43;;;8.00;99.90;;;;;;5029565;28;20512;-78
2022/11/15 05:42:00;;;;;;;23.60;9.33;;;7.90;99.90;;;;;;5046271;28;20426;-77
2022/11/15 05:44:27;;;;;;;4.47;3.20;;;7.90;99.90;;;;;;5046263;28;20457;-78
2022/11/15 05:46:55;;;;;;;2.40;1.40;;;8.00;99.90;;;;;;5046340;28;20437;-77
2022/11/15 05:49:26;;;;;;;1.77;1.30;;;8.20;99.90;;;;;;5029805;28;20454;-78
2022/11/15 05:51:53;;;;;;;2.50;1.10;;;8.70;99.90;;;;;;5046322;28;20431;-78
2022/11/15 05:54:21;;;;;;;2.03;0.73;;;9.20;99.90;;;;;;5046289;28;20910;-78
2022/11/15 05:56:47;;;;;;;3.70;1.60;;;9.60;99.90;;;;;;5029737;28;20441;-79
2022/11/15 05:59:13;;;;;;;1.30;1.20;;;10.10;99.90;;;;;;5046001;28;20829;-78
2022/11/15 06:01:40;;;;;;;9.43;1.23;;;10.20;99.90;;;;;;5029718;28;20274;-78
2022/11/15 06:04:06;;;;;;;1.77;1.00;;;10.30;99.90;;;;;;5048219;28;20443;-78
2022/11/15 06:06:31;;;;;;;1.60;1.33;;;10.40;99.90;;;;;;5047708;28;20425;-79
2022/11/15 06:08:57;;;;;;;1.77;1.20;;;10.30;99.90;;;;;;5029605;28;20950;-79
2022/11/15 06:11:22;;;;;;;2.70;1.47;;;10.40;99.90;;;;;;5046270;28;20645;-79
2022/11/15 06:13:48;;;;;;;1.77;1.50;;;10.40;99.90;;;;;;5046198;28;20189;-79
2022/11/15 06:16:14;;;;;;;2.50;1.80;;;10.50;99.90;;;;;;5046501;28;20194;-79
2022/11/15 06:18:39;;;;;;;2.00;1.90;;;10.50;99.90;;;;;;5046747;28;20676;-79
2022/11/15 06:21:05;;;;;;;6.60;1.30;;;10.50;99.90;;;;;;5030433;28;20194;-80
2022/11/15 06:23:34;;;;;;;5.90;1.80;;;10.40;99.90;;;;;;5031180;28;20193;-78
2022/11/15 06:26:01;;;;;;;2.50;1.73;;;10.40;99.90;;;;;;5046727;28;20217;-79
2022/11/15 06:28:32;;;;;;;2.30;1.73;;;10.30;99.90;;;;;;5046175;28;20427;-81
2022/11/15 06:31:10;;;;;;;2.53;1.90;;;10.30;99.90;;;;;;5046795;28;20886;-79
2022/11/15 06:33:36;;;;;;;2.10;1.60;;;10.40;99.90;;;;;;5034467;28;20471;-80
2022/11/15 06:36:08;;;;;;;4.37;1.67;;;10.30;99.90;;;;;;5050552;28;20885;-79
2022/11/15 06:38:34;;;;;;;3.33;1.57;;;10.30;99.90;;;;;;5051514;28;20523;-79
2022/11/15 06:41:05;;;;;;;3.33;1.80;;;10.30;99.90;;;;;;5049971;28;21009;-79
2022/11/15 06:43:31;;;;;;;2.80;1.33;;;10.20;99.90;;;;;;5033204;28;20423;-78
2022/11/15 06:46:01;;;;;;;3.23;1.77;;;10.20;99.90;;;;;;5032993;28;20480;-79
2022/11/15 06:48:27;;;;;;;3.27;1.30;;;10.20;99.90;;;;;;5033415;28;20430;-79
2022/11/15 06:50:58;;;;;;;3.33;1.63;;;10.30;99.90;;;;;;5032545;28;20864;-79
2022/11/15 06:53:25;;;;;;;4.40;1.80;;;10.30;99.90;;;;;;5049808;28;20516;-79
2022/11/15 06:55:51;;;;;;;1.90;1.33;;;10.30;99.90;;;;;;5049321;28;20492;-78
2022/11/15 06:58:17;;;;;;;3.10;1.47;;;10.40;99.90;;;;;;5049666;28;20505;-79
2022/11/15 07:00:43;;;;;;;1.60;1.50;;;10.30;99.90;;;;;;5049527;28;20209;-80
2022/11/15 07:03:09;;;;;;;3.07;1.80;;;10.30;99.90;;;;;;5049672;28;20183;-82
2022/11/15 07:05:36;;;;;;;4.00;1.80;;;10.40;99.90;;;;;;5049953;28;20465;-79
2022/11/15 07:08:02;;;;;;;3.00;1.20;;;10.50;99.90;;;;;;5051205;28;20423;-79
2022/11/15 07:10:28;;;;;;;1.83;1.30;;;10.50;99.90;;;;;;5051224;28;20434;-79
2022/11/15 07:12:55;;;;;;;1.40;1.30;;;10.50;99.90;;;;;;5032902;28;21266;-78
2022/11/15 07:15:24;;;;;;;2.90;1.33;;;10.60;99.90;;;;;;5033495;28;20505;-80
2022/11/15 07:17:49;;;;;;;2.97;1.13;;;10.80;99.90;;;;;;5050746;28;20517;-79
2022/11/15 07:20:17;;;;;;;1.40;1.17;;;10.70;99.90;;;;;;5051380;28;20491;-79
2022/11/15 07:22:45;;;;;;;2.30;1.93;;;10.80;99.90;;;;;;5051121;28;20433;-80
2022/11/15 07:25:11;;;;;;;11.77;2.67;;;10.80;99.90;;;;;;5051175;28;20529;-80
2022/11/15 07:27:37;;;;;;;3.70;1.90;;;10.80;99.90;;;;;;5051264;28;20494;-80
2022/11/15 07:30:03;;;;;;;2.80;1.57;;;10.90;99.90;;;;;;5034239;28;20519;-80
2022/11/15 07:32:29;;;;;;;3.20;1.70;;;11.00;99.90;;;;;;5051529;28;20476;-80
2022/11/15 07:34:54;;;;;;;3.53;1.40;;;11.10;99.90;;;;;;5016379;28;21046;-80
2022/11/15 07:37:20;;;;;;;3.90;1.33;;;11.20;99.90;;;;;;5049720;28;20184;-80
2022/11/15 07:39:46;;;;;;;3.30;1.70;;;11.20;99.90;;;;;;5049408;28;20208;-79
2022/11/15 07:44:55;;;;;;;3.47;1.70;;;11.40;99.90;;;;;;5049205;28;20583;-80
2022/11/15 07:47:21;;;;;;;2.33;1.73;;;11.50;99.90;;;;;;5049246;28;20428;-81
2022/11/15 07:49:47;;;;;;;2.00;1.80;;;11.50;99.90;;;;;;5049012;28;20190;-81
2022/11/15 07:52:13;;;;;;;2.30;1.70;;;11.40;99.90;;;;;;5049099;28;20284;-81
2022/11/15 07:54:39;;;;;;;1.97;1.77;;;11.40;99.90;;;;;;5032623;28;20213;-80
2022/11/15 07:57:06;;;;;;;4.57;1.90;;;11.40;99.90;;;;;;5049366;28;20440;-80
2022/11/15 07:59:32;;;;;;;2.57;1.60;;;11.30;99.90;;;;;;5048778;28;20547;-77
2022/11/15 08:01:58;;;;;;;2.70;1.50;;;11.40;99.90;;;;;;5031750;28;20516;-79
2022/11/15 08:04:24;;;;;;;2.90;1.37;;;11.60;99.90;;;;;;5048415;28;20816;-79
2022/11/15 08:06:49;;;;;;;5.00;1.47;;;11.90;99.90;;;;;;5048004;28;20183;-79
2022/11/15 08:09:15;;;;;;;2.50;1.40;;;12.10;99.90;;;;;;5031330;28;20213;-78
2022/11/15 08:11:41;;;;;;;2.60;1.40;;;12.60;99.90;;;;;;5031265;28;20603;-79
2022/11/15 08:14:07;;;;;;;2.83;1.57;;;13.70;99.90;;;;;;5048189;28;20203;-79
2022/11/15 08:16:32;;;;;;;3.00;1.33;;;14.80;99.90;;;;;;5048002;28;20213;-78
2022/11/15 08:18:58;;;;;;;3.60;1.50;;;15.40;97.60;;;;;;5047826;28;20984;-78
2022/11/15 08:21:24;;;;;;;2.80;1.47;;;15.20;96.40;;;;;;5049418;28;20182;-79
2022/11/15 08:23:50;;;;;;;2.63;1.60;;;14.80;95.50;;;;;;5048864;28;20423;-77
2022/11/15 08:26:16;;;;;;;1.77;1.23;;;14.10;97.30;;;;;;5030758;28;20242;-79
2022/11/15 08:28:42;;;;;;;3.63;1.60;;;14.00;97.90;;;;;;5047821;28;20188;-78
2022/11/15 08:31:14;;;;;;;3.37;1.40;;;13.80;97.40;;;;;;5031558;28;20428;-78
2022/11/15 08:33:40;;;;;;;1.77;1.63;;;13.70;98.70;;;;;;5047558;28;20544;-79
2022/11/15 08:36:06;;;;;;;5.17;2.13;;;13.50;99.30;;;;;;5047987;28;20959;-78
2022/11/15 08:38:32;;;;;;;2.07;1.40;;;13.40;99.80;;;;;;5031866;28;20186;-78
2022/11/15 08:41:03;;;;;;;2.70;1.03;;;13.40;99.90;;;;;;5030177;28;20469;-77
2022/11/15 08:43:29;;;;;;;1.80;1.20;;;13.30;99.90;;;;;;5047056;28;20426;-78
2022/11/15 08:45:58;;;;;;;1.60;1.30;;;13.30;99.90;;;;;;5030474;28;20504;-78
2022/11/15 08:48:24;;;;;;;2.90;1.70;;;13.30;99.90;;;;;;5047126;28;20238;-77
2022/11/15 08:50:55;;;;;;;3.20;2.00;;;13.20;99.90;;;;;;5048592;28;20426;-77
2022/11/15 08:53:20;;;;;;;1.53;1.30;;;13.30;99.90;;;;;;5046888;28;20424;-78
2022/11/15 08:55:46;;;;;;;1.63;1.40;;;13.20;99.90;;;;;;5030311;28;20461;-78
2022/11/15 08:58:12;;;;;;;6.67;1.90;;;13.10;99.90;;;;;;5048479;28;20266;-78
2022/11/15 09:00:37;;;;;;;13.80;8.73;;;13.70;99.90;;;;;;5030130;28;20754;-78
2022/11/15 09:03:08;;;;;;;8.43;3.30;;;14.50;99.90;;;;;;5047228;28;20191;-78
2022/11/15 09:05:36;;;;;;;3.63;1.80;;;14.90;98.70;;;;;;5046776;28;20208;-77
2022/11/15 09:08:03;;;;;;;13.70;7.17;;;15.00;98.00;;;;;;5047818;28;20425;-80
2022/11/15 09:10:28;;;;;;;4.03;2.40;;;14.90;98.20;;;;;;5029827;28;20454;-80
2022/11/15 09:12:56;;;;;;;3.77;2.40;;;14.80;97.00;;;;;;5030206;28;20212;-79
2022/11/15 09:15:22;;;;;;;5.73;2.33;;;14.60;97.50;;;;;;5029769;28;20708;-79
2022/11/15 09:17:47;;;;;;;3.20;1.87;;;14.50;98.30;;;;;;5030038;28;20418;-79
2022/11/15 09:20:13;;;;;;;10.97;5.83;;;14.50;99.10;;;;;;5029937;28;20221;-79
2022/11/15 09:22:39;;;;;;;241.93;88.33;;;14.10;99.90;;;;;;5029660;28;20179;-79
2022/11/15 09:25:05;;;;;;;20.87;10.47;;;13.40;99.90;;;;;;5029615;28;20744;-80
2022/11/15 09:27:36;;;;;;;275.80;97.80;;;13.00;99.90;;;;;;5047861;28;20188;-80
2022/11/15 09:30:03;;;;;;;291.67;104.80;;;12.70;99.90;;;;;;5046447;28;20437;-80
2022/11/15 09:32:32;;;;;;;12.80;7.53;;;12.50;99.90;;;;;;5046386;28;20863;-80
2022/11/15 09:34:58;;;;;;;8.70;5.10;;;12.50;99.90;;;;;;5046230;28;20477;-80
2022/11/15 09:37:23;;;;;;;6.33;5.00;;;12.30;99.90;;;;;;5029631;28;20472;-80
2022/11/15 09:39:49;;;;;;;7.93;5.60;;;12.40;99.90;;;;;;5046073;28;21002;-79
2022/11/15 09:42:37;;;;;;;9.27;5.90;;;12.40;99.90;;;;;;5046167;28;20188;-79
2022/11/15 09:45:29;;;;;;;20.33;9.20;;;12.50;99.90;;;;;;5029414;28;20283;-80
2022/11/15 09:48:03;;;;;;;13.00;6.67;;;12.70;99.90;;;;;;5046223;28;20486;-79
2022/11/15 09:50:49;;;;;;;10.03;6.47;;;12.90;99.90;;;;;;5046801;28;20425;-80
2022/11/15 09:53:39;;;;;;;52.67;34.53;;;13.20;99.90;;;;;;5048269;28;20471;-80
2022/11/15 09:56:20;;;;;;;798.20;370.63;;;14.10;99.90;;;;;;5046526;28;20475;-80
2022/11/15 09:59:23;;;;;;;288.57;111.67;;;14.30;99.90;;;;;;5047716;28;20494;-79
2022/11/15 10:02:19;;;;;;;16.97;9.23;;;14.40;99.90;;;;;;5046485;28;20414;-80
2022/11/15 10:04:46;;;;;;;25.30;10.70;;;14.20;99.90;;;;;;5046446;28;20446;-81
2022/11/15 10:07:46;;;;;;;6.10;4.23;;;14.10;99.90;;;;;;5046114;28;20906;-79
2022/11/15 10:10:17;;;;;;;10.13;6.57;;;14.30;99.90;;;;;;5046497;28;20493;-81
2022/11/15 10:12:52;;;;;;;20.60;10.20;;;14.00;99.90;;;;;;5049229;28;20962;-81
2022/11/15 10:15:22;;;;;;;11.87;7.63;;;14.40;99.90;;;;;;5047220;28;20483;-81
2022/11/15 10:18:07;;;;;;;12.67;7.13;;;15.80;99.90;;;;;;5031007;28;20473;-81
2022/11/15 10:20:58;;;;;;;7.37;5.80;;;16.40;99.90;;;;;;5047962;28;20462;-81
2022/11/15 10:23:24;;;;;;;11.17;7.70;;;17.00;99.90;;;;;;5048943;28;20465;-81
2022/11/15 10:25:57;;;;;;;11.13;5.90;;;17.30;99.10;;;;;;5031868;28;20470;-81
2022/11/15 10:28:29;;;;;;;21.17;8.60;;;17.70;97.00;;;;;;5032394;28;20429;-81
2022/11/15 10:31:00;;;;;;;9.40;6.17;;;17.80;96.10;;;;;;5050627;28;20442;-81
2022/11/15 10:33:29;;;;;;;12.03;6.80;;;17.80;96.60;;;;;;5049301;28;20439;-82
2022/11/15 10:36:13;;;;;;;17.70;9.13;;;17.40;95.60;;;;;;5050425;28;20526;-81
2022/11/15 10:38:48;;;;;;;12.77;7.27;;;17.00;97.50;;;;;;5050019;28;20546;-82
2022/11/15 10:41:17;;;;;;;9.83;6.90;;;16.80;98.00;;;;;;5049392;28;20444;-81
2022/11/15 10:43:43;;;;;;;13.53;8.40;;;16.40;98.20;;;;;;5049616;28;20417;-82
2022/11/15 10:46:23;;;;;;;28.73;12.90;;;16.10;99.20;;;;;;5032590;28;20793;-82
2022/11/15 10:48:49;;;;;;;14.63;9.20;;;15.80;99.90;;;;;;5048646;28;20460;-81
2022/11/15 10:51:27;;;;;;;19.33;8.83;;;15.80;99.90;;;;;;5032095;28;20420;-81
2022/11/15 10:53:56;;;;;;;9.83;7.47;;;15.70;99.90;;;;;;5048094;28;20187;-80
2022/11/15 10:56:23;;;;;;;11.10;6.67;;;15.60;99.90;;;;;;5047233;28;20410;-81
2022/11/15 10:58:57;;;;;;;10.80;5.60;;;15.30;99.90;;;;;;5046970;28;20417;-81
2022/11/15 11:01:31;;;;;;;6.87;5.70;;;15.20;99.90;;;;;;5030795;28;20864;-81
2022/11/15 11:04:01;;;;;;;12.57;5.87;;;15.00;99.90;;;;;;5047363;28;20444;-84
2022/11/15 11:07:19;;;;;;;13.50;6.43;;;14.80;99.90;;;;;;5049213;28;20911;-82
2022/11/15 11:09:45;;;;;;;10.90;6.57;;;14.60;99.90;;;;;;5048029;28;20451;-81
2022/11/15 11:12:11;;;;;;;15.93;7.40;;;14.50;99.90;;;;;;5048299;28;20922;-82
2022/11/15 11:14:39;;;;;;;12.13;6.53;;;14.50;99.90;;;;;;5031185;28;20226;-81
2022/11/15 11:17:16;;;;;;;36.53;16.00;;;14.40;99.90;;;;;;5031888;28;20420;-78
2022/11/15 11:20:07;;;;;;;26.30;11.10;;;14.40;99.90;;;;;;5051403;28;20476;-85
2022/11/15 11:23:00;;;;;;;7.70;5.70;;;14.40;99.90;;;;;;5053557;28;20983;-82
2022/11/15 11:26:09;;;;;;;8.70;5.83;;;14.20;99.90;;;;;;5051495;28;20433;-81
2022/11/15 11:29:11;;;;;;;133.17;43.43;;;14.20;99.90;;;;;;5051197;28;20414;-82
2022/11/15 11:31:49;;;;;;;42.20;16.50;;;14.20;99.90;;;;;;5050982;28;20413;-80
2022/11/15 11:34:32;;;;;;;16.40;7.60;;;14.20;99.90;;;;;;5051020;28;20442;-80
2022/11/15 11:37:22;;;;;;;19.63;9.10;;;14.10;99.90;;;;;;5051313;28;20528;-81
2022/11/15 11:40:05;;;;;;;8.43;6.00;;;14.00;99.90;;;;;;5050765;28;20554;-82
2022/11/15 11:42:57;;;;;;;11.80;5.67;;;13.90;99.90;;;;;;5050656;28;20431;-83
2022/11/15 11:45:42;;;;;;;6.83;5.13;;;13.90;99.90;;;;;;5051454;28;20442;-82
2022/11/15 11:48:27;;;;;;;6.00;4.70;;;13.80;99.90;;;;;;5050818;28;20492;-83
2022/11/15 11:51:05;;;;;;;8.40;5.30;;;13.80;99.90;;;;;;5050303;28;20429;-84
2022/11/15 11:53:46;;;;;;;6.83;4.70;;;13.90;99.90;;;;;;5035719;28;20417;-84
2022/11/15 11:56:27;;;;;;;12.43;5.77;;;14.00;99.90;;;;;;5050993;28;20436;-83
2022/11/15 11:58:57;;;;;;;105.60;32.03;;;13.90;99.90;;;;;;5049491;28;20430;-84
2022/11/15 12:01:26;;;;;;;217.00;55.33;;;14.00;99.90;;;;;;5049851;28;20422;-84
2022/11/15 12:03:55;;;;;;;57.10;17.30;;;14.00;99.90;;;;;;5032646;28;20414;-82
2022/11/15 12:06:40;;;;;;;174.77;57.87;;;14.10;99.90;;;;;;5048844;28;20430;-82
2022/11/15 12:09:14;;;;;;;85.77;32.93;;;14.10;99.90;;;;;;5048913;28;20454;-82
2022/11/15 12:12:30;;;;;;;17.10;9.17;;;14.10;99.90;;;;;;5048712;28;20937;-81
2022/11/15 12:15:02;;;;;;;13.10;8.23;;;14.20;99.90;;;;;;5031201;28;20460;-82
2022/11/15 12:17:33;;;;;;;13.23;6.90;;;14.10;99.90;;;;;;5031517;28;20418;-82
2022/11/15 12:20:03;;;;;;;11.93;6.90;;;14.00;99.90;;;;;;5025183;28;20473;-82
2022/11/15 12:22:47;;;;;;;10.70;4.70;;;14.00;99.90;;;;;;5049599;28;20960;-82
2022/11/15 12:25:21;;;;;;;5.80;4.27;;;14.00;99.90;;;;;;5049056;28;20438;-80
2022/11/15 12:27:53;;;;;;;8.03;4.97;;;13.90;99.90;;;;;;5049495;28;20422;-81
2022/11/15 12:30:21;;;;;;;8.67;5.27;;;13.90;99.90;;;;;;5050300;28;20418;-82
2022/11/15 12:32:59;;;;;;;10.13;4.93;;;13.90;99.90;;;;;;5049029;28;20516;-82
2022/11/15 12:35:56;;;;;;;8.00;4.80;;;13.90;99.90;;;;;;5049267;28;20436;-82
2022/11/15 12:39:02;;;;;;;14.93;6.77;;;13.90;99.90;;;;;;5048756;28;20925;-82
2022/11/15 12:41:33;;;;;;;8.13;5.90;;;13.90;99.90;;;;;;5047769;28;20462;-82
2022/11/15 12:43:59;;;;;;;41.67;21.43;;;13.90;99.90;;;;;;5048050;28;20429;-82
2022/11/15 12:46:31;;;;;;;50.90;25.63;;;13.90;99.90;;;;;;5048553;28;21327;-80
2022/11/15 12:49:02;;;;;;;28.03;13.50;;;13.90;99.90;;;;;;5047713;28;20433;-81
2022/11/15 12:51:43;;;;;;;20.50;12.43;;;13.90;99.90;;;;;;5030849;28;20423;-80
2022/11/15 12:54:24;;;;;;;19.60;10.80;;;13.80;99.90;;;;;;5049070;28;20433;-81
2022/11/15 12:57:08;;;;;;;16.67;10.80;;;13.80;99.90;;;;;;5048026;28;20418;-80
2022/11/15 12:59:55;;;;;;;13.50;9.60;;;13.90;99.90;;;;;;5047807;28;20489;-81
2022/11/15 13:02:44;;;;;;;13.10;8.43;;;13.90;99.90;;;;;;5048577;28;20422;-80
2022/11/15 13:07:41;;;;;;;17.90;8.67;;;14.00;99.90;;;;;;5049835;28;20505;-81
2022/11/15 13:10:09;;;;;;;12.33;8.20;;;14.10;99.90;;;;;;5048919;28;20611;-81
2022/11/15 13:12:38;;;;;;;10.30;6.90;;;14.20;99.90;;;;;;5047236;28;20187;-81
2022/11/15 13:15:27;;;;;;;8.33;6.20;;;14.20;99.90;;;;;;5048165;28;20435;-81
2022/11/15 13:17:55;;;;;;;15.87;7.03;;;14.30;99.90;;;;;;5046403;28;20422;-81
2022/11/15 13:20:29;;;;;;;11.23;7.03;;;14.30;99.90;;;;;;5046172;28;20465;-81
2022/11/15 13:25:38;;;;;;;367.43;103.07;;;14.30;99.90;;;;;;5048006;28;20422;-82